createdAt,value
2022-09-03T00:00:51.915Z,-20499.94
2022-09-03T00:03:21.253Z,-20497.81
2022-09-03T00:05:51.781Z,-20499.34
2022-09-03T00:08:23.287Z,-20499.34
2022-09-03T00:10:54.345Z,-20499.34
2022-09-03T00:13:24.430Z,-20497.81
2022-09-03T00:15:54.646Z,-20499.94
2022-09-03T00:18:24.842Z,-20501.16
2022-09-03T00:20:54.970Z,-20502.06
2022-09-03T00:23:23.414Z,-20504.97
2022-09-03T00:25:53.505Z,-20508.16
2022-09-03T00:28:24.309Z,-20509.38
2022-09-03T00:30:57.604Z,-20509.22
2022-09-03T00:33:27.676Z,-20509.06
2022-09-03T00:35:56.675Z,-20512.41
2022-09-03T00:38:24.209Z,-20512.25
2022-09-03T00:41:03.328Z,-20510.56
2022-09-03T00:43:39.461Z,-20510.72
2022-09-03T00:46:17.118Z,-20511.34
2022-09-03T00:48:49.144Z,-20511.03
2022-09-03T00:51:29.206Z,-20511.78
2022-09-03T00:54:01.500Z,-20511.78
2022-09-03T00:56:37.148Z,-20511.34
2022-09-03T00:59:12.490Z,-20511.66
2022-09-03T01:01:47.225Z,-20511.78
2022-09-03T01:04:36.421Z,-20513.63
2022-09-03T01:07:10.005Z,-20513.31
2022-09-03T01:09:48.986Z,-20513.16
2022-09-03T01:12:20.120Z,-20513.31
2022-09-03T01:14:53.299Z,-20512.09
2022-09-03T01:17:28.350Z,-20511.78
2022-09-03T01:20:11.475Z,-20509.38
2022-09-03T01:22:49.317Z,-20509.38
2022-09-03T01:25:18.519Z,-20507.25
2022-09-03T01:27:53.265Z,-20504.81
2022-09-03T01:30:24.017Z,-20498.88
2022-09-03T01:32:57.705Z,-20494.63
2022-09-03T01:35:30.218Z,-20493.56
2022-09-03T01:38:06.764Z,-20493.41
2022-09-03T01:40:39.374Z,-20495.38
2022-09-03T01:43:15.793Z,-20493.72
2022-09-03T01:45:51.524Z,-20499.94
2022-09-03T01:48:31.945Z,-20502.06
2022-09-03T01:51:04.509Z,-20500.84
2022-09-03T01:53:38.984Z,-20501.78
2022-09-03T01:56:18.576Z,-20497.81
2022-09-03T01:58:50.213Z,-20501.47
2022-09-03T02:01:23.210Z,-20496.91
2022-09-03T02:03:50.978Z,-20497.06
2022-09-03T02:06:20.642Z,-20494.94
2022-09-03T02:08:48.111Z,-20497.81
2022-09-03T02:11:15.748Z,-20499.34
2022-09-03T02:13:46.096Z,-20500.56
2022-09-03T02:16:15.191Z,-20501.00
2022-09-03T02:18:46.042Z,-20499.50
2022-09-03T02:21:16.278Z,-20495.69
2022-09-03T02:23:43.768Z,-20494.31
2022-09-03T02:26:13.062Z,-20494.78
2022-09-03T02:28:40.528Z,-20489.31
2022-09-03T02:31:08.252Z,-20491.75
2022-09-03T02:33:37.995Z,-20493.72
2022-09-03T02:36:08.440Z,-20488.25
2022-09-03T02:38:35.959Z,-20488.53
2022-09-03T02:41:03.877Z,-20490.22
2022-09-03T02:43:35.274Z,-20490.81
2022-09-03T02:46:03.359Z,-20490.53
2022-09-03T02:48:30.876Z,-20487.78
2022-09-03T02:50:58.445Z,-20484.75
2022-09-03T02:53:28.278Z,-20482.31
2022-09-03T02:55:58.612Z,-20480.03
2022-09-03T02:58:26.287Z,-20476.84
2022-09-03T03:00:53.948Z,-20475.31
2022-09-03T03:03:21.940Z,-20473.19
2022-09-03T03:05:50.599Z,-20475.03
2022-09-03T03:08:21.415Z,-20474.72
2022-09-03T03:10:52.097Z,-20473.81
2022-09-03T03:13:19.778Z,-20472.88
2022-09-03T03:15:47.835Z,-20471.81
2022-09-03T03:18:15.414Z,-20470.47
2022-09-03T03:20:44.241Z,-20472.28
2022-09-03T03:23:11.946Z,-20470.59
2022-09-03T03:25:40.052Z,-20469.38
2022-09-03T03:28:09.138Z,-20474.72
2022-09-03T03:30:38.497Z,-20471.97
2022-09-03T03:33:06.037Z,-20472.44
2022-09-03T03:35:33.674Z,-20475.19
2022-09-03T03:38:01.182Z,-20476.84
2022-09-03T03:40:28.683Z,-20478.22
2022-09-03T03:42:58.415Z,-20476.53
2022-09-03T03:45:27.252Z,-20477.75
2022-09-03T03:47:58.036Z,-20476.09
2022-09-03T03:50:26.104Z,-20476.22
2022-09-03T03:52:53.588Z,-20476.53
2022-09-03T03:55:21.074Z,-20474.25
2022-09-03T03:57:48.568Z,-20475.47
2022-09-03T04:00:16.693Z,-20472.28
2022-09-03T04:02:46.974Z,-20467.41
2022-09-03T04:05:14.534Z,-20464.06
2022-09-03T04:07:42.006Z,-20465.28
2022-09-03T04:10:10.077Z,-20465.59
2022-09-03T04:12:37.639Z,-20466.34
2022-09-03T04:15:06.782Z,-20470.47
2022-09-03T04:17:34.251Z,-20471.38
2022-09-03T04:20:03.259Z,-20470.75
2022-09-03T04:22:30.734Z,-20471.53
2022-09-03T04:24:58.184Z,-20473.81
2022-09-03T04:27:25.809Z,-20474.88
2022-09-03T04:29:53.266Z,-20474.09
2022-09-03T04:32:38.350Z,-20475.03
2022-09-03T04:35:07.557Z,-20469.09
2022-09-03T04:37:35.018Z,-20465.91
2022-09-03T04:40:02.584Z,-20461.50
2022-09-03T04:42:30.134Z,-20448.09
2022-09-03T04:44:57.666Z,-20440.94
2022-09-03T04:47:25.128Z,-20437.00
2022-09-03T04:49:54.029Z,-20436.06
2022-09-03T04:52:22.830Z,-20435.78
2022-09-03T04:54:50.291Z,-20427.84
2022-09-03T04:57:17.925Z,-20428.16
2022-09-03T04:59:45.355Z,-20423.13
2022-09-03T05:02:13.985Z,-20422.69
2022-09-03T05:04:41.594Z,-20414.16
2022-09-03T05:07:09.976Z,-20416.44
2022-09-03T05:09:38.993Z,-20416.28
2022-09-03T05:12:07.637Z,-20420.53
2022-09-03T05:14:35.470Z,-20421.75
2022-09-03T05:17:03.118Z,-20415.66
2022-09-03T05:19:31.454Z,-20410.19
2022-09-03T05:21:59.054Z,-20415.38
2022-09-03T05:24:26.951Z,-20414.59
2022-09-03T05:26:56.002Z,-20409.59
2022-09-03T05:29:24.210Z,-20406.53
2022-09-03T05:31:51.942Z,-20409.13
2022-09-03T05:34:19.657Z,-20408.66
2022-09-03T05:36:49.818Z,-20413.84
2022-09-03T05:39:17.663Z,-20414.44
2022-09-03T05:41:45.750Z,-20415.66
2022-09-03T05:44:15.098Z,-20421.91
2022-09-03T05:46:42.774Z,-20424.97
2022-09-03T05:49:11.610Z,-20426.94
2022-09-03T05:51:40.355Z,-20420.09
2022-09-03T05:54:08.578Z,-20417.97
2022-09-03T05:56:39.661Z,-20419.31
2022-09-03T05:59:09.278Z,-20419.63
2022-09-03T06:01:40.035Z,-20419.03
2022-09-03T06:04:09.579Z,-20417.81
2022-09-03T06:06:39.305Z,-20415.97
2022-09-03T06:09:09.229Z,-20416.28
2022-09-03T06:11:37.822Z,-20415.38
2022-09-03T06:14:08.465Z,-20409.13
2022-09-03T06:16:39.913Z,-20405.94
2022-09-03T06:19:10.786Z,-20408.81
2022-09-03T06:21:42.738Z,-20408.22
2022-09-03T06:24:11.998Z,-20409.88
2022-09-03T06:26:41.041Z,-20412.94
2022-09-03T06:29:11.200Z,-20412.00
2022-09-03T06:31:40.506Z,-20409.59
2022-09-03T06:34:08.589Z,-20405.00
2022-09-03T06:36:36.291Z,-20406.84
2022-09-03T06:39:04.598Z,-20407.75
2022-09-03T06:41:35.371Z,-20401.34
2022-09-03T06:44:05.466Z,-20412.94
2022-09-03T06:46:34.813Z,-20415.38
2022-09-03T06:49:04.388Z,-20417.19
2022-09-03T06:51:33.987Z,-20418.25
2022-09-03T06:54:03.924Z,-20422.38
2022-09-03T06:56:37.311Z,-20428.16
2022-09-03T06:59:08.828Z,-20431.50
2022-09-03T07:01:37.357Z,-20426.19
2022-09-03T07:04:06.753Z,-20423.88
2022-09-03T07:06:38.499Z,-20427.41
2022-09-03T07:09:06.485Z,-20422.97
2022-09-03T07:11:35.857Z,-20417.19
2022-09-03T07:14:04.998Z,-20425.41
2022-09-03T07:16:35.360Z,-20438.66
2022-09-03T07:19:04.555Z,-20435.16
2022-09-03T07:21:36.691Z,-20442.16
2022-09-03T07:24:06.120Z,-20440.03
2022-09-03T07:26:35.888Z,-20452.50
2022-09-03T07:29:04.051Z,-20451.28
2022-09-03T07:31:33.967Z,-20452.06
2022-09-03T07:34:05.075Z,-20448.56
2022-09-03T07:36:43.142Z,-20452.19
2022-09-03T07:39:12.362Z,-20454.47
2022-09-03T07:41:42.686Z,-20450.38
2022-09-03T07:44:10.607Z,-20464.97
2022-09-03T07:46:40.468Z,-20457.97
2022-09-03T07:49:08.392Z,-20466.50
2022-09-03T07:51:39.481Z,-20466.19
2022-09-03T07:54:10.752Z,-20462.41
2022-09-03T07:56:39.357Z,-20472.28
2022-09-03T07:59:07.446Z,-20472.75
2022-09-03T08:01:36.935Z,-20478.53
2022-09-03T08:04:10.914Z,-20480.19
2022-09-03T08:06:40.995Z,-20482.78
2022-09-03T08:09:11.300Z,-20487.19
2022-09-03T08:11:41.552Z,-20494.63
2022-09-03T08:14:11.687Z,-20499.78
2022-09-03T08:16:41.852Z,-20503.75
2022-09-03T08:19:11.199Z,-20498.44
2022-09-03T08:21:42.164Z,-20494.78
2022-09-03T08:24:11.227Z,-20502.22
2022-09-03T08:26:41.616Z,-20490.97
2022-09-03T08:29:10.423Z,-20497.22
2022-09-03T08:31:38.690Z,-20503.28
2022-09-03T08:34:08.073Z,-20502.38
2022-09-03T08:36:38.220Z,-20502.38
2022-09-03T08:39:09.953Z,-20516.81
2022-09-03T08:41:50.289Z,-20525.75
2022-09-03T08:44:25.130Z,-20526.53
2022-09-03T08:46:56.848Z,-20506.94
2022-09-03T08:49:32.183Z,-20518.03
2022-09-03T08:52:03.508Z,-20540.94
2022-09-03T08:54:33.946Z,-20555.22
2022-09-03T08:57:03.776Z,-20556.56
2022-09-03T08:59:33.124Z,-20559.16
2022-09-03T09:02:12.117Z,-20552.47
2022-09-03T09:04:54.746Z,-20554.31
2022-09-03T09:07:28.460Z,-20564.31
2022-09-03T09:10:04.482Z,-20581.28
2022-09-03T09:12:44.196Z,-20579.78
2022-09-03T09:15:20.921Z,-20577.50
2022-09-03T09:17:58.809Z,-20571.75
2022-09-03T09:20:36.846Z,-20581.00
2022-09-03T09:23:06.819Z,-20587.97
2022-09-03T09:25:42.973Z,-20584.94
2022-09-03T09:28:17.940Z,-20574.63
2022-09-03T09:30:47.451Z,-20583.41
2022-09-03T09:33:15.847Z,-20574.00
2022-09-03T09:35:43.974Z,-20580.06
2022-09-03T09:38:13.151Z,-20574.94
2022-09-03T09:40:46.439Z,-20567.50
2022-09-03T09:43:17.245Z,-20572.34
2022-09-03T09:45:46.929Z,-20558.84
2022-09-03T09:48:21.319Z,-20559.59
2022-09-03T09:50:49.041Z,-20571.44
2022-09-03T09:53:21.600Z,-20577.34
2022-09-03T09:55:52.803Z,-20573.88
2022-09-03T09:58:23.893Z,-20568.88
2022-09-03T10:01:00.466Z,-20593.25
2022-09-03T10:03:29.946Z,-20614.63
2022-09-03T10:06:21.197Z,-20634.16
2022-09-03T10:08:49.401Z,-20639.44
2022-09-03T10:11:21.345Z,-20617.34
2022-09-03T10:13:50.389Z,-20593.72
2022-09-03T10:16:27.498Z,-20601.28
2022-09-03T10:19:04.104Z,-20604.31
2022-09-03T10:21:36.456Z,-20608.41
2022-09-03T10:24:20.344Z,-20596.91
2022-09-03T10:26:49.473Z,-20593.72
2022-09-03T10:29:21.192Z,-20597.50
2022-09-03T10:32:01.614Z,-20604.63
2022-09-03T10:37:15.292Z,-20618.56
2022-09-03T10:39:58.883Z,-20607.66
2022-09-03T10:42:42.357Z,-20608.88
2022-09-03T10:45:19.601Z,-20609.00
2022-09-03T10:48:18.181Z,-20612.66
2022-09-03T10:50:49.752Z,-20622.19
2022-09-03T10:53:39.652Z,-20622.19
2022-09-03T10:56:13.237Z,-20620.38
2022-09-03T10:58:52.949Z,-20632.03
2022-09-03T11:01:28.979Z,-20633.69
2022-09-03T11:04:15.144Z,-20616.44
2022-09-03T11:06:52.146Z,-20622.94
2022-09-03T11:09:24.868Z,-20633.09
2022-09-03T11:11:56.246Z,-20625.66
2022-09-03T11:14:35.179Z,-20632.47
2022-09-03T11:17:10.121Z,-20638.09
2022-09-03T11:19:48.126Z,-20634.59
2022-09-03T11:22:20.983Z,-20635.06
2022-09-03T11:24:56.573Z,-20624.47
2022-09-03T11:27:37.123Z,-20632.94
2022-09-03T11:30:08.686Z,-20627.50
2022-09-03T11:32:49.732Z,-20628.25
2022-09-03T11:35:28.848Z,-20633.69
2022-09-03T11:38:01.425Z,-20638.69
2022-09-03T11:40:35.799Z,-20663.94
2022-09-03T11:43:14.593Z,-20691.16
2022-09-03T11:45:44.253Z,-20703.69
2022-09-03T11:48:20.152Z,-20737.03
2022-09-03T11:50:55.833Z,-20730.09
2022-09-03T11:53:28.183Z,-20725.72
2022-09-03T11:55:59.823Z,-20705.03
2022-09-03T11:58:32.812Z,-20684.19
2022-09-03T12:01:03.901Z,-20691.91
2022-09-03T12:03:43.218Z,-20705.03
2022-09-03T12:06:29.209Z,-20698.84
2022-09-03T12:09:17.512Z,-20690.53
2022-09-03T12:11:58.842Z,-20678.00
2022-09-03T12:14:37.341Z,-20662.13
2022-09-03T12:17:15.019Z,-20641.41
2022-09-03T12:19:53.379Z,-20643.84
2022-09-03T12:22:24.118Z,-20666.38
2022-09-03T12:24:51.985Z,-20678.16
2022-09-03T12:27:24.609Z,-20682.84
2022-09-03T12:29:57.915Z,-20692.81
2022-09-03T12:32:30.131Z,-20706.84
2022-09-03T12:34:57.796Z,-20719.84
2022-09-03T12:40:21.988Z,-20725.41
2022-09-03T12:42:50.450Z,-20721.94
2022-09-03T12:45:22.990Z,-20715.59
2022-09-03T12:47:53.263Z,-20732.81
2022-09-03T12:50:23.275Z,-20725.13
2022-09-03T12:52:54.257Z,-20721.66
2022-09-03T12:55:34.334Z,-20734.63
2022-09-03T12:58:11.401Z,-20734.63
2022-09-03T13:00:46.531Z,-20726.63
2022-09-03T13:03:21.087Z,-20707.75
2022-09-03T13:05:53.876Z,-20702.19
2022-09-03T13:08:24.410Z,-20693.56
2022-09-03T13:10:54.650Z,-20698.41
2022-09-03T13:13:25.154Z,-20698.53
2022-09-03T13:16:01.978Z,-20706.84
2022-09-03T13:18:42.134Z,-20708.50
2022-09-03T13:21:18.743Z,-20712.44
2022-09-03T13:24:03.397Z,-20719.53
2022-09-03T13:26:43.221Z,-20731.91
2022-09-03T13:29:35.426Z,-20728.88
2022-09-03T13:32:17.197Z,-20751.50
2022-09-03T13:34:52.042Z,-20758.44
2022-09-03T13:37:26.781Z,-20760.84
2022-09-03T13:39:59.966Z,-20735.06
2022-09-03T13:42:33.598Z,-20735.81
2022-09-03T13:45:07.650Z,-20745.34
2022-09-03T13:48:02.190Z,-20755.13
2022-09-03T13:50:42.195Z,-20759.06
2022-09-03T13:53:19.454Z,-20756.78
2022-09-03T13:55:56.734Z,-20768.69
2022-09-03T13:58:30.966Z,-20778.03
2022-09-03T14:01:11.579Z,-20763.56
2022-09-03T14:03:48.952Z,-20752.88
2022-09-03T14:06:30.899Z,-20743.38
2022-09-03T14:09:07.666Z,-20740.66
2022-09-03T14:11:50.432Z,-20713.78
2022-09-03T14:14:30.599Z,-20722.84
2022-09-03T14:17:03.092Z,-20732.22
2022-09-03T14:19:40.179Z,-20727.38
2022-09-03T14:22:15.008Z,-20720.44
2022-09-03T14:24:50.161Z,-20708.66
2022-09-03T14:27:26.764Z,-20695.97
2022-09-03T14:29:59.389Z,-20688.72
2022-09-03T14:32:44.125Z,-20685.25
2022-09-03T14:35:39.567Z,-20663.50
2022-09-03T14:38:52.290Z,-20667.41
2022-09-03T14:41:37.613Z,-20668.63
2022-09-03T14:44:33.919Z,-20668.19
2022-09-03T14:47:15.214Z,-20664.25
2022-09-03T14:49:58.533Z,-20662.44
2022-09-03T14:52:54.586Z,-20661.53
2022-09-03T14:55:50.622Z,-20650.94
2022-09-03T14:58:36.228Z,-20642.47
2022-09-03T15:01:08.594Z,-20629.47
2022-09-03T15:04:04.406Z,-20614.63
2022-09-03T15:06:42.685Z,-20613.41
2022-09-03T15:09:23.874Z,-20612.19
2022-09-03T15:11:56.800Z,-20609.91
2022-09-03T15:14:31.034Z,-20610.38
2022-09-03T15:17:01.936Z,-20610.97
2022-09-03T15:19:58.201Z,-20610.84
2022-09-03T15:22:43.991Z,-20615.06
2022-09-03T15:25:23.971Z,-20612.94
2022-09-03T15:28:06.850Z,-20604.16
2022-09-03T15:30:40.900Z,-20603.13
2022-09-03T15:33:22.128Z,-20594.47
2022-09-03T15:36:12.625Z,-20590.06
2022-09-03T15:38:46.193Z,-20589.63
2022-09-03T15:41:33.696Z,-20584.00
2022-09-03T15:44:03.343Z,-20582.19
2022-09-03T15:46:39.488Z,-20578.88
2022-09-03T15:49:19.306Z,-20571.28
2022-09-03T15:51:57.531Z,-20568.72
2022-09-03T15:54:37.255Z,-20564.59
2022-09-03T15:57:11.119Z,-20558.84
2022-09-03T15:59:42.547Z,-20560.06
2022-09-03T16:02:16.035Z,-20551.88
2022-09-03T16:05:09.945Z,-20552.16
2022-09-03T16:07:56.299Z,-20554.00
2022-09-03T16:10:39.115Z,-20556.56
2022-09-03T16:13:14.734Z,-20557.19
2022-09-03T16:15:47.070Z,-20557.34
2022-09-03T16:18:24.336Z,-20558.25
2022-09-03T16:20:59.930Z,-20560.06
2022-09-03T16:23:33.536Z,-20561.28
2022-09-03T16:26:06.235Z,-20564.47
2022-09-03T16:28:42.912Z,-20559.31
2022-09-03T16:31:21.284Z,-20553.09
2022-09-03T16:34:01.607Z,-20551.25
2022-09-03T16:36:42.241Z,-20548.22
2022-09-03T16:39:20.654Z,-20550.81
2022-09-03T16:41:57.286Z,-20550.66
2022-09-03T16:44:33.778Z,-20547.78
2022-09-03T16:47:10.049Z,-20537.44
2022-09-03T16:49:55.673Z,-20536.09
2022-09-03T16:52:39.431Z,-20537.91
2022-09-03T16:55:22.572Z,-20538.38
2022-09-03T16:58:01.621Z,-20540.50
2022-09-03T17:00:45.561Z,-20554.16
2022-09-03T17:03:41.019Z,-20560.38
2022-09-03T17:06:25.958Z,-20571.91
2022-09-03T17:09:02.227Z,-20579.47
2022-09-03T17:12:00.305Z,-20585.53
2022-09-03T17:15:01.548Z,-20583.56
2022-09-03T17:17:48.705Z,-20584.78
2022-09-03T17:20:22.598Z,-20582.81
2022-09-03T17:23:09.642Z,-20575.69
2022-09-03T17:25:39.029Z,-20578.09
2022-09-03T17:28:22.645Z,-20578.09
2022-09-03T17:30:58.022Z,-20577.50
2022-09-03T17:33:47.415Z,-20573.72
2022-09-03T17:36:18.518Z,-20560.97
2022-09-03T17:39:22.274Z,-20560.81
2022-09-03T17:41:53.816Z,-20562.19
2022-09-03T17:44:47.280Z,-20555.22
2022-09-03T17:47:35.213Z,-20551.25
2022-09-03T17:50:14.058Z,-20550.66
2022-09-03T17:52:48.490Z,-20550.97
2022-09-03T17:55:25.315Z,-20549.75
2022-09-03T17:57:58.897Z,-20549.13
2022-09-03T18:00:34.951Z,-20541.56
2022-09-03T18:03:09.698Z,-20533.06
2022-09-03T18:05:46.941Z,-20530.63
2022-09-03T18:08:23.089Z,-20525.16
2022-09-03T18:11:08.242Z,-20521.06
2022-09-03T18:13:47.534Z,-20516.66
2022-09-03T18:16:20.691Z,-20513.91
2022-09-03T18:18:52.137Z,-20512.56
2022-09-03T18:21:41.308Z,-20514.22
2022-09-03T18:24:42.213Z,-20513.63
2022-09-03T18:27:33.683Z,-20511.19
2022-09-03T18:30:22.686Z,-20507.53
2022-09-03T18:33:08.159Z,-20505.13
2022-09-03T18:35:53.754Z,-20504.34
2022-09-03T18:38:44.128Z,-20502.38
2022-09-03T18:41:43.306Z,-20499.66
2022-09-03T18:44:39.054Z,-20496.91
2022-09-03T18:51:02.080Z,-20497.50
2022-09-03T18:53:58.576Z,-20494.16
2022-09-03T18:56:53.818Z,-20497.06
2022-09-03T19:00:00.703Z,-20494.16
2022-09-03T19:02:52.164Z,-20494.03
2022-09-03T19:05:44.647Z,-20492.66
2022-09-03T19:08:36.701Z,-20489.16
2022-09-03T19:11:27.742Z,-20488.09
2022-09-03T19:14:16.626Z,-20487.03
2022-09-03T19:17:18.677Z,-20483.84
2022-09-03T19:20:20.261Z,-20484.00
2022-09-03T19:23:05.534Z,-20480.78
2022-09-03T19:25:50.953Z,-20480.34
2022-09-03T19:28:37.993Z,-20476.84
2022-09-03T19:31:49.678Z,-20476.22
2022-09-03T19:35:00.993Z,-20475.03
2022-09-03T19:37:53.934Z,-20475.94
2022-09-03T19:41:08.591Z,-20473.19
2022-09-03T19:44:03.969Z,-20472.75
2022-09-03T19:46:58.493Z,-20472.88
2022-09-03T19:49:57.409Z,-20470.75
2022-09-03T19:52:48.015Z,-20469.25
2022-09-03T19:55:34.778Z,-20468.03
2022-09-03T19:58:39.536Z,-20467.41
2022-09-03T20:01:25.286Z,-20468.34
2022-09-03T20:04:10.648Z,-20469.25
2022-09-03T20:06:57.298Z,-20464.06
2022-09-03T20:09:44.812Z,-20463.47
2022-09-03T20:12:14.389Z,-20464.06
2022-09-03T20:14:41.943Z,-20462.84
2022-09-03T20:17:14.320Z,-20461.50
2022-09-03T20:19:57.383Z,-20461.78
2022-09-03T20:22:29.743Z,-20463.16
2022-09-03T20:25:05.074Z,-20460.25
2022-09-03T20:27:39.958Z,-20460.88
2022-09-03T20:30:11.856Z,-20464.38
2022-09-03T20:33:11.179Z,-20463.75
2022-09-03T20:35:51.903Z,-20460.13
2022-09-03T20:38:38.284Z,-20460.25
2022-09-03T20:41:18.171Z,-20460.13
2022-09-03T20:44:00.783Z,-20461.03
2022-09-03T20:46:46.074Z,-20458.59
2022-09-03T20:49:26.263Z,-20454.03
2022-09-03T20:52:06.046Z,-20454.34
2022-09-03T20:54:38.867Z,-20457.38
2022-09-03T20:57:26.907Z,-20453.41
2022-09-03T21:00:05.631Z,-20452.19
2022-09-03T21:02:55.202Z,-20453.13
2022-09-03T21:05:28.046Z,-20451.00
2022-09-03T21:08:08.784Z,-20449.00
2022-09-03T21:10:46.385Z,-20451.59
2022-09-03T21:13:22.970Z,-20448.25
2022-09-03T21:15:59.103Z,-20448.84
2022-09-03T21:18:38.486Z,-20448.25
2022-09-03T21:21:20.112Z,-20449.00
2022-09-03T21:23:56.577Z,-20449.47
2022-09-03T21:26:29.272Z,-20449.00
2022-09-03T21:29:03.399Z,-20447.50
2022-09-03T21:31:38.575Z,-20446.72
2022-09-03T21:34:12.513Z,-20444.28
2022-09-03T21:36:42.677Z,-20443.06
2022-09-03T21:39:15.857Z,-20443.69
2022-09-03T21:41:54.246Z,-20445.19
2022-09-03T21:44:43.598Z,-20445.19
2022-09-03T21:47:12.682Z,-20446.72
2022-09-03T21:50:00.013Z,-20447.66
2022-09-03T21:52:34.709Z,-20448.69
2022-09-03T21:55:04.331Z,-20447.34
2022-09-03T21:57:41.144Z,-20448.41
2022-09-03T22:00:18.618Z,-20445.34
2022-09-03T22:02:47.267Z,-20450.84
2022-09-03T22:05:16.245Z,-20450.22
2022-09-03T22:08:14.343Z,-20450.38
2022-09-03T22:10:54.943Z,-20450.22
2022-09-03T22:13:31.029Z,-20450.69
2022-09-03T22:16:07.140Z,-20449.78
2022-09-03T22:18:37.889Z,-20451.00
2022-09-03T22:21:14.219Z,-20449.16
2022-09-03T22:23:55.717Z,-20448.56
2022-09-03T22:26:38.202Z,-20447.50
2022-09-03T22:29:15.420Z,-20444.91
2022-09-03T22:31:52.421Z,-20444.28
2022-09-03T22:34:31.233Z,-20442.47
2022-09-03T22:37:03.688Z,-20440.63
2022-09-03T22:39:37.392Z,-20441.25
2022-09-03T22:42:31.656Z,-20440.94
2022-09-03T22:45:24.922Z,-20440.94
2022-09-03T22:48:03.437Z,-20442.00
2022-09-03T22:50:35.138Z,-20443.69
2022-09-03T22:53:17.873Z,-20441.25
2022-09-03T22:55:51.842Z,-20440.19
2022-09-03T22:58:24.074Z,-20438.66
2022-09-03T23:01:00.054Z,-20438.50
2022-09-03T23:03:36.912Z,-20443.38
2022-09-03T23:06:07.791Z,-20448.84
2022-09-03T23:08:42.265Z,-20446.41
2022-09-03T23:11:25.702Z,-20444.00
2022-09-03T23:14:01.430Z,-20441.41
2022-09-03T23:16:38.801Z,-20441.41
2022-09-03T23:21:52.327Z,-20437.00
2022-09-03T23:24:26.638Z,-20437.91
2022-09-03T23:26:54.919Z,-20435.16
2022-09-03T23:29:27.951Z,-20433.50
2022-09-03T23:31:59.679Z,-20431.81
2022-09-03T23:34:28.464Z,-20432.72
2022-09-03T23:40:19.339Z,-20427.53
2022-09-03T23:43:13.676Z,-20427.25
2022-09-03T23:45:49.788Z,-20422.97
2022-09-03T23:48:26.294Z,-20420.09
2022-09-03T23:51:09.601Z,-20419.47
2022-09-03T23:53:46.793Z,-20418.72
2022-09-03T23:56:45.486Z,-20418.25
2022-09-03T23:59:21.052Z,-20419.63
